Patterson, Illinois
Current Conditions -  °F | °C
As of 9:35 AM on Sunday 21 Dec 2014 (Local Time) from KPPQ Reporting Station
Overcast Overcast  
Wind Chill: 33°   Ceiling: 2700
Heat Index: 39°   Visibility: 10mi
Dew Point: 35°   Wind: 10mph
Humidity: 84%   Direction: 140°SE
Pressure: 30.16"   Gusts: NA
Location:  39.48°N, 90.48°W
Report Text: KPPQ 211535Z AUTO 14009KT 10SM OVC027 04/02 A3016 RMK AO2 T00410017
Loading
Personal Weather Stations






























Interactive Weather Map New forecast layout! Learn more

10-Day Weather Forecast

Advertisements
Track Severe Weather on mobile